Time;durP1;ratioP1;P1;durP2;ratioP2;P2;SDS_P1;SDS_P2;PMS_P1;PMS_P2;Temp;Humidity;BMP_temperature;BMP_pressure;BME280_temperature;BME280_humidity;BME280_pressure;Samples;Min_cycle;Max_cycle;Signal;HPM_P1;HPM_P2
2023/09/23 00:02:26;;;;;;;17.40;9.90;;;;;;;15.78;100.00;99795.78;214624;1287;141277;-84
2023/09/23 00:07:28;;;;;;;17.80;12.10;;;;;;;15.77;100.00;99791.29;215029;1286;138922;-82
2023/09/23 00:12:30;;;;;;;17.10;11.60;;;;;;;15.77;100.00;99774.45;214222;1287;142151;-83
2023/09/23 00:17:32;;;;;;;18.10;11.60;;;;;;;15.80;100.00;99760.30;214325;1288;140203;-82
2023/09/23 00:22:34;;;;;;;14.70;10.30;;;;;;;15.80;100.00;99773.14;213722;1287;141019;-82
2023/09/23 00:27:34;;;;;;;16.60;10.50;;;;;;;15.78;100.00;99762.64;214193;1287;140233;-82
2023/09/23 00:32:37;;;;;;;14.80;10.70;;;;;;;15.79;100.00;99762.93;214068;1287;143880;-82
2023/09/23 00:37:40;;;;;;;14.80;11.00;;;;;;;15.80;100.00;99753.55;214272;1288;138935;-82
2023/09/23 00:42:40;;;;;;;16.50;10.70;;;;;;;15.81;100.00;99742.45;213695;1286;140800;-82
2023/09/23 00:47:43;;;;;;;16.20;10.60;;;;;;;15.81;100.00;99735.21;214532;1286;139126;-82
2023/09/23 00:52:47;;;;;;;16.10;10.80;;;;;;;15.81;100.00;99732.38;213837;1289;141369;-83
2023/09/23 00:57:48;;;;;;;17.50;11.10;;;;;;;15.81;100.00;99744.81;214299;1286;139053;-83
2023/09/23 01:02:49;;;;;;;21.30;12.80;;;;;;;15.78;100.00;99761.84;214052;1289;139964;-82
2023/09/23 01:07:51;;;;;;;15.30;10.70;;;;;;;15.77;100.00;99794.45;214585;1286;140422;-84
2023/09/23 01:12:51;;;;;;;15.40;10.30;;;;;;;15.76;100.00;99823.08;213952;1287;140696;-84
2023/09/23 01:17:53;;;;;;;14.80;10.10;;;;;;;15.75;100.00;99808.60;214446;1287;139857;-82
2023/09/23 01:22:57;;;;;;;17.20;10.90;;;;;;;15.74;100.00;99800.14;213929;1285;142921;-82
2023/09/23 01:27:58;;;;;;;18.20;11.30;;;;;;;15.72;100.00;99811.66;214391;1287;138978;-82
2023/09/23 01:32:58;;;;;;;15.90;9.70;;;;;;;15.67;100.00;99781.64;214024;1287;141295;-82
2023/09/23 01:37:59;;;;;;;15.50;10.40;;;;;;;15.62;100.00;99778.33;214430;1287;139109;-83
2023/09/23 01:43:01;;;;;;;14.80;9.60;;;;;;;15.57;100.00;99773.28;213791;1286;142007;-83
2023/09/23 01:48:03;;;;;;;13.20;9.00;;;;;;;15.52;100.00;99773.37;214304;1288;139167;-83
2023/09/23 01:53:04;;;;;;;14.10;9.20;;;;;;;15.46;100.00;99777.00;213836;1287;141479;-83
2023/09/23 01:58:05;;;;;;;13.20;8.80;;;;;;;15.40;100.00;99780.66;214239;1287;138939;-83
2023/09/23 02:03:05;;;;;;;15.80;9.20;;;;;;;15.35;100.00;99773.21;213893;1286;140793;-83
2023/09/23 02:08:05;;;;;;;16.60;8.40;;;;;;;15.31;100.00;99776.61;214260;1287;138857;-83
2023/09/23 02:13:06;;;;;;;12.30;7.80;;;;;;;15.30;100.00;99779.63;213814;1287;141580;-83
2023/09/23 02:18:06;;;;;;;12.50;7.00;;;;;;;15.27;100.00;99779.91;214236;1287;140022;-84
2023/09/23 02:23:07;;;;;;;13.30;7.80;;;;;;;15.27;100.00;99782.46;213682;1290;141075;-83
2023/09/23 02:28:07;;;;;;;12.00;7.30;;;;;;;15.23;100.00;99788.95;214473;1287;139016;-84
2023/09/23 02:33:08;;;;;;;12.20;7.40;;;;;;;15.19;100.00;99789.17;213860;1287;142863;-84
2023/09/23 02:38:10;;;;;;;13.60;7.40;;;;;;;15.15;100.00;99784.73;214410;1290;139324;-83
2023/09/23 02:43:10;;;;;;;13.90;7.30;;;;;;;15.10;100.00;99778.40;213723;1287;141021;-83
2023/09/23 02:48:13;;;;;;;10.60;6.90;;;;;;;15.09;100.00;99782.23;214282;1286;139521;-84
2023/09/23 02:53:13;;;;;;;12.20;8.00;;;;;;;15.07;100.00;99789.38;213728;1286;144420;-84
2023/09/23 02:58:14;;;;;;;19.00;10.30;;;;;;;15.06;100.00;99789.41;214234;1287;138901;-84
2023/09/23 03:03:19;;;;;;;18.70;9.30;;;;;;;15.03;100.00;99790.26;213654;1287;141871;-84
2023/09/23 03:08:19;;;;;;;17.00;9.30;;;;;;;14.99;100.00;99789.15;213964;1286;138581;-84
2023/09/23 03:13:20;;;;;;;14.10;8.30;;;;;;;14.94;100.00;99805.45;213651;1286;140693;-83
2023/09/23 03:18:33;;;;;;;14.10;7.70;;;;;;;14.88;100.00;99820.50;214390;1287;138986;-84
2023/09/23 03:23:35;;;;;;;10.80;6.80;;;;;;;14.81;100.00;99834.55;213608;1287;140852;-85
2023/09/23 03:28:36;;;;;;;12.10;6.20;;;;;;;14.75;100.00;99841.92;214396;1287;139406;-84
2023/09/23 03:33:37;;;;;;;15.40;8.20;;;;;;;14.68;100.00;99839.75;215716;1287;142235;-84
2023/09/23 03:38:37;;;;;;;10.30;6.60;;;;;;;14.59;100.00;99835.20;214431;1287;98310;-84
2023/09/23 03:43:39;;;;;;;10.60;6.20;;;;;;;14.51;100.00;99839.52;213927;1290;140701;-84
2023/09/23 03:48:39;;;;;;;10.60;6.30;;;;;;;14.40;100.00;99853.59;214360;1286;138852;-84
2023/09/23 03:53:40;;;;;;;11.40;6.60;;;;;;;14.33;100.00;99861.20;215532;1286;142623;-84
2023/09/23 03:58:40;;;;;;;12.20;7.40;;;;;;;14.27;100.00;99869.48;215090;1290;138834;-84
2023/09/23 04:03:41;;;;;;;10.60;6.50;;;;;;;14.22;100.00;99870.52;214488;1287;140742;-84
2023/09/23 04:08:41;;;;;;;10.40;6.50;;;;;;;14.13;100.00;99869.88;214894;1287;97970;-83
2023/09/23 04:13:44;;;;;;;10.70;6.60;;;;;;;14.06;100.00;99866.73;214455;1287;140395;-83
2023/09/23 04:18:46;;;;;;;11.10;6.80;;;;;;;14.00;100.00;99864.35;216824;1287;139371;-84
2023/09/23 04:23:48;;;;;;;11.70;7.10;;;;;;;13.93;100.00;99873.91;214141;1289;142359;-84
2023/09/23 04:28:52;;;;;;;11.20;6.90;;;;;;;13.88;100.00;99888.52;214455;1290;138925;-84
2023/09/23 04:33:52;;;;;;;10.80;7.10;;;;;;;13.82;100.00;99901.30;213891;1287;139695;-84
2023/09/23 04:38:53;;;;;;;12.00;7.20;;;;;;;13.77;100.00;99909.26;214479;1290;107918;-83
2023/09/23 04:43:53;;;;;;;14.40;7.40;;;;;;;13.68;100.00;99912.43;213581;1290;142077;-84
2023/09/23 04:48:53;;;;;;;16.20;8.50;;;;;;;13.63;100.00;99925.11;214257;1287;138815;-84
2023/09/23 04:53:54;;;;;;;13.40;7.90;;;;;;;13.59;100.00;99922.79;213957;1288;141807;-83
2023/09/23 04:58:58;;;;;;;13.30;8.20;;;;;;;13.55;100.00;99921.95;214252;1287;139773;-84
2023/09/23 05:03:59;;;;;;;16.40;8.40;;;;;;;13.52;100.00;99920.73;213628;1286;139682;-84
2023/09/23 05:09:00;;;;;;;17.00;9.20;;;;;;;13.51;100.00;99931.48;214626;1287;98022;-84
2023/09/23 05:14:00;;;;;;;18.30;10.20;;;;;;;13.48;100.00;99941.84;213866;1286;139697;-84
2023/09/23 05:19:00;;;;;;;15.50;9.40;;;;;;;13.47;100.00;99944.21;214371;1289;138974;-83
2023/09/23 05:24:02;;;;;;;14.90;8.60;;;;;;;13.47;100.00;99932.61;213748;1287;141580;-83
2023/09/23 05:29:02;;;;;;;17.10;9.60;;;;;;;13.46;100.00;99934.98;214517;1287;139433;-82
2023/09/23 05:34:04;;;;;;;16.40;10.40;;;;;;;13.46;100.00;99934.60;213947;1287;141893;-81
2023/09/23 05:39:08;;;;;;;17.40;10.50;;;;;;;13.47;100.00;99947.46;214590;1290;107782;-83
2023/09/23 05:44:08;;;;;;;18.30;11.50;;;;;;;13.47;100.00;99958.20;213871;1286;223170;-83
2023/09/23 05:49:09;;;;;;;18.00;10.20;;;;;;;13.48;100.00;99973.74;213859;1287;140763;-83
2023/09/23 05:54:09;;;;;;;20.90;11.40;;;;;;;13.48;100.00;99977.86;214411;1285;139142;-83
2023/09/23 05:59:10;;;;;;;17.70;10.70;;;;;;;13.48;100.00;99966.48;214017;1287;141337;-82
2023/09/23 06:04:11;;;;;;;19.90;11.50;;;;;;;13.49;100.00;99976.91;214626;1286;139024;-83
2023/09/23 06:09:11;;;;;;;20.10;11.20;;;;;;;13.51;100.00;99990.63;213962;1287;142336;-84
2023/09/23 06:14:12;;;;;;;21.10;12.40;;;;;;;13.56;100.00;99993.34;214351;1287;138994;-83
2023/09/23 06:19:12;;;;;;;20.70;11.40;;;;;;;13.60;100.00;99994.98;213927;1287;162474;-82
2023/09/23 06:24:13;;;;;;;20.50;11.70;;;;;;;13.66;100.00;99988.92;214237;1290;139855;-83
2023/09/23 06:29:16;;;;;;;22.80;12.00;;;;;;;13.74;100.00;99997.48;214030;1287;140577;-83
2023/09/23 06:34:17;;;;;;;17.30;10.50;;;;;;;13.84;100.00;100000.46;214283;1288;139916;-84
2023/09/23 06:39:17;;;;;;;20.80;10.70;;;;;;;13.96;100.00;100000.11;214008;1287;141797;-85
2023/09/23 06:44:28;;;;;;;20.70;11.00;;;;;;;14.09;100.00;100002.59;214439;1287;139219;-83
2023/09/23 06:49:28;;;;;;;17.90;9.30;;;;;;;14.23;100.00;100003.90;213831;1287;141120;-83
2023/09/23 06:54:28;;;;;;;17.40;9.70;;;;;;;14.35;100.00;100005.98;214760;1287;139346;-83
2023/09/23 06:59:29;;;;;;;18.50;8.90;;;;;;;14.47;100.00;100017.56;214053;1286;140944;-85
2023/09/23 07:04:29;;;;;;;15.10;8.90;;;;;;;14.60;100.00;100023.27;214580;1287;139738;-83
2023/09/23 07:09:31;;;;;;;15.70;8.80;;;;;;;14.70;100.00;100033.27;213967;1287;140877;-83
2023/09/23 07:14:31;;;;;;;14.70;8.60;;;;;;;14.79;100.00;100055.48;214622;1288;97941;-84
2023/09/23 07:19:35;;;;;;;14.40;8.20;;;;;;;14.91;100.00;100063.33;214146;1287;142083;-84
2023/09/23 07:24:35;;;;;;;13.60;7.70;;;;;;;15.06;100.00;100067.03;214613;1287;140084;-83
2023/09/23 07:29:36;;;;;;;12.90;7.50;;;;;;;15.17;100.00;100075.29;214170;1287;143475;-80
2023/09/23 07:34:36;;;;;;;12.60;6.90;;;;;;;15.27;100.00;100092.65;214663;1287;140074;-81
2023/09/23 07:39:38;;;;;;;12.30;5.60;;;;;;;15.39;100.00;100107.41;213793;1288;140462;-82
2023/09/23 07:44:39;;;;;;;9.80;6.10;;;;;;;15.52;100.00;100124.35;214506;1288;99256;-83
2023/09/23 07:49:39;;;;;;;13.40;6.30;;;;;;;15.63;100.00;100121.97;214037;1287;141733;-82
2023/09/23 07:54:40;;;;;;;11.80;5.70;;;;;;;15.73;100.00;100104.07;214674;1287;139051;-82
2023/09/23 07:59:41;;;;;;;12.90;5.00;;;;;;;15.83;100.00;100085.77;213877;1290;141223;-82
2023/09/23 08:04:42;;;;;;;10.30;5.60;;;;;;;15.97;100.00;100094.67;214540;1287;139394;-83
2023/09/23 08:09:42;;;;;;;9.30;5.30;;;;;;;16.08;100.00;100105.48;213859;1290;141680;-83
2023/09/23 08:14:43;;;;;;;9.60;4.80;;;;;;;16.24;100.00;100128.24;214675;1290;99246;-82
2023/09/23 08:19:44;;;;;;;10.50;4.80;;;;;;;16.35;100.00;100133.85;213923;1286;140739;-83
2023/09/23 08:24:44;;;;;;;8.40;4.80;;;;;;;16.44;100.00;100138.00;214492;1288;139586;-83
2023/09/23 08:29:45;;;;;;;9.00;4.80;;;;;;;16.61;100.00;100143.17;214574;1288;141909;-82
2023/09/23 08:34:45;;;;;;;8.50;4.80;;;;;;;16.70;100.00;100150.48;215564;1287;139288;-83
2023/09/23 08:39:46;;;;;;;11.90;6.00;;;;;;;16.78;100.00;100164.14;215397;1286;140818;-84
2023/09/23 08:44:49;;;;;;;11.60;5.90;;;;;;;16.87;100.00;100170.73;215919;1287;97988;-85
2023/09/23 08:49:50;;;;;;;10.60;5.30;;;;;;;16.93;100.00;100174.91;215273;1290;141477;-83
2023/09/23 08:54:51;;;;;;;17.30;5.70;;;;;;;17.02;100.00;100177.52;215786;1287;139449;-84
2023/09/23 08:59:51;;;;;;;8.90;3.80;;;;;;;17.07;100.00;100181.78;215130;1285;140858;-83
2023/09/23 09:04:57;;;;;;;8.70;4.00;;;;;;;17.10;100.00;100181.80;216036;1287;138968;-82
2023/09/23 09:09:57;;;;;;;8.10;4.20;;;;;;;17.16;100.00;100193.69;216045;1287;140923;-85
2023/09/23 09:14:58;;;;;;;7.60;4.50;;;;;;;17.23;100.00;100200.38;216067;1290;99247;-83
2023/09/23 09:20:02;;;;;;;8.50;5.60;;;;;;;17.27;100.00;100200.72;215045;1285;140387;-84
2023/09/23 09:25:10;;;;;;;9.10;6.00;;;;;;;17.34;100.00;100203.18;215680;1286;139493;-85
2023/09/23 09:30:11;;;;;;;9.80;5.10;;;;;;;17.38;100.00;100205.65;214984;1287;140835;-83
2023/09/23 09:35:20;;;;;;;8.40;4.50;;;;;;;17.45;99.97;100207.99;215580;1286;138809;-84
2023/09/23 09:40:21;;;;;;;7.40;3.20;;;;;;;17.54;100.00;100198.73;215271;1287;139489;-85
2023/09/23 09:45:22;;;;;;;8.10;2.80;;;;;;;17.73;99.98;100191.66;216019;1287;96934;-84
2023/09/23 09:50:23;;;;;;;6.60;3.20;;;;;;;17.93;99.95;100202.98;215003;1290;141502;-86
2023/09/23 09:55:25;;;;;;;16.60;3.40;;;;;;;18.14;98.43;100210.23;215842;1290;139503;-84
2023/09/23 10:00:28;;;;;;;6.30;2.90;;;;;;;18.31;97.27;100207.23;214875;1287;140896;-84
2023/09/23 10:05:46;;;;;;;5.40;2.80;;;;;;;18.47;96.13;100210.28;216303;1287;139132;-86
2023/09/23 10:10:50;;;;;;;4.80;2.70;;;;;;;18.59;94.65;100209.65;215552;1287;141079;-86
2023/09/23 10:15:51;;;;;;;5.00;2.40;;;;;;;18.68;93.41;100215.95;216276;1288;139904;-86
2023/09/23 10:20:56;;;;;;;5.40;2.50;;;;;;;18.84;93.56;100213.92;215175;1290;140726;-86
2023/09/23 10:25:56;;;;;;;7.60;2.60;;;;;;;19.05;93.48;100214.03;215544;1287;139448;-85
2023/09/23 10:31:07;;;;;;;6.70;2.30;;;;;;;19.29;92.29;100209.64;215218;1287;139879;-85
2023/09/23 10:36:19;;;;;;;5.90;2.40;;;;;;;19.47;90.66;100214.95;215497;1289;139328;-85
2023/09/23 10:41:20;;;;;;;6.20;1.70;;;;;;;19.66;90.60;100217.66;215083;1290;140847;-88
2023/09/23 10:46:21;;;;;;;3.40;1.50;;;;;;;19.93;88.81;100222.05;215783;1287;139024;-86
2023/09/23 10:51:22;;;;;;;6.90;1.80;;;;;;;20.05;83.12;100220.80;215175;1287;142210;-84
2023/09/23 10:56:26;;;;;;;4.10;1.60;;;;;;;20.07;82.59;100222.45;215831;1287;138628;-87
2023/09/23 11:01:29;;;;;;;3.70;1.50;;;;;;;20.12;83.06;100219.98;215008;1286;274944;-85
2023/09/23 11:06:30;;;;;;;3.50;1.50;;;;;;;20.26;81.86;100222.32;215601;1288;138981;-87
2023/09/23 11:11:36;;;;;;;2.20;1.10;;;;;;;20.40;80.66;100227.15;214840;1290;140814;-87
2023/09/23 11:16:42;;;;;;;3.40;1.30;;;;;;;20.56;79.89;100231.19;216102;1288;139331;-85
2023/09/23 11:21:46;;;;;;;3.30;1.50;;;;;;;20.73;77.18;100233.02;215775;1288;140280;-87
2023/09/23 11:26:47;;;;;;;3.70;1.30;;;;;;;20.84;77.18;100233.83;216276;1287;98267;-84
2023/09/23 11:31:48;;;;;;;3.60;1.50;;;;;;;20.92;75.28;100246.30;214528;1288;140488;-85
2023/09/23 11:36:49;;;;;;;4.00;1.30;;;;;;;20.78;75.00;100256.64;215538;1290;139388;-88
2023/09/23 11:41:57;;;;;;;2.90;1.30;;;;;;;20.70;74.55;100266.59;215019;1290;141999;-86
2023/09/23 11:46:57;;;;;;;3.90;1.50;;;;;;;20.50;74.01;100270.20;215792;1286;140486;-85
2023/09/23 11:51:59;;;;;;;4.20;1.20;;;;;;;20.33;75.32;100266.11;215409;1286;141021;-84
2023/09/23 11:56:59;;;;;;;3.80;1.10;;;;;;;20.26;73.85;100270.55;216317;1288;97844;-85
2023/09/23 12:02:00;;;;;;;2.30;1.00;;;;;;;20.16;74.54;100268.21;215851;1288;139505;-84
2023/09/23 12:07:00;;;;;;;5.40;1.10;;;;;;;20.10;74.82;100267.20;216229;1286;138047;-86
2023/09/23 12:12:01;;;;;;;6.00;1.80;;;;;;;20.09;76.16;100269.08;215525;1288;141169;-85
2023/09/23 12:17:03;;;;;;;1.90;0.90;;;;;;;20.12;75.23;100287.50;216204;1287;138844;-85
2023/09/23 12:22:04;;;;;;;2.20;0.90;;;;;;;20.01;73.57;100286.63;215779;1288;141878;-84
2023/09/23 12:27:04;;;;;;;3.20;1.10;;;;;;;19.92;73.50;100287.30;217625;1286;96558;-85
2023/09/23 12:32:06;;;;;;;2.90;1.20;;;;;;;19.85;73.50;100290.52;216538;1286;140793;-87
2023/09/23 12:37:07;;;;;;;3.60;1.40;;;;;;;19.85;73.70;100291.15;215564;1290;139440;-85
2023/09/23 12:42:08;;;;;;;4.40;1.50;;;;;;;19.84;74.04;100292.53;215441;1288;140223;-86
2023/09/23 12:47:08;;;;;;;3.40;1.20;;;;;;;19.87;73.78;100300.34;215076;1291;138851;-84
2023/09/23 12:52:09;;;;;;;2.50;1.00;;;;;;;19.87;73.65;100307.21;215201;1290;140129;-84
2023/09/23 12:57:09;;;;;;;4.50;1.10;;;;;;;19.85;72.66;100318.52;215118;1287;98860;-84
2023/09/23 13:02:10;;;;;;;1.80;0.80;;;;;;;19.86;72.03;100315.39;214447;1288;142230;-85
2023/09/23 13:07:10;;;;;;;1.80;0.90;;;;;;;19.88;72.95;100320.13;215342;1288;137905;-85
2023/09/23 13:12:11;;;;;;;4.60;1.30;;;;;;;19.91;72.91;100320.98;214516;1286;140396;-86
2023/09/23 13:17:11;;;;;;;2.10;0.90;;;;;;;19.89;72.88;100336.13;215818;1290;138029;-87
2023/09/23 13:22:12;;;;;;;2.90;1.10;;;;;;;19.84;71.95;100340.51;214410;1288;139363;-87
2023/09/23 13:27:12;;;;;;;2.10;0.70;;;;;;;19.76;73.13;100342.98;215084;1286;98391;-86
2023/09/23 13:32:13;;;;;;;2.20;0.90;;;;;;;19.70;72.20;100350.94;214431;1290;140119;-85
2023/09/23 13:37:13;;;;;;;3.20;1.10;;;;;;;19.70;72.12;100363.55;214910;1287;137860;-86
2023/09/23 13:42:14;;;;;;;3.90;1.10;;;;;;;19.76;72.89;100369.06;214205;1290;139983;-88
2023/09/23 13:47:14;;;;;;;2.50;0.80;;;;;;;19.81;74.45;100368.20;214686;1290;138464;-89
2023/09/23 13:52:15;;;;;;;4.70;1.10;;;;;;;19.77;72.95;100388.81;214182;1291;140536;-88
2023/09/23 13:57:15;;;;;;;4.10;1.50;;;;;;;19.70;72.90;100384.55;214799;1290;97922;-85
2023/09/23 14:02:17;;;;;;;3.10;1.10;;;;;;;19.66;73.58;100383.35;214402;1291;139946;-87
2023/09/23 14:07:18;;;;;;;3.60;1.10;;;;;;;19.67;74.53;100373.35;215117;1290;137908;-87
2023/09/23 14:12:19;;;;;;;2.20;0.80;;;;;;;19.68;74.70;100381.06;214601;1290;141656;-88
2023/09/23 14:17:22;;;;;;;2.60;1.00;;;;;;;19.69;75.45;100392.71;215025;1290;138250;-87
2023/09/23 14:22:23;;;;;;;3.70;1.00;;;;;;;19.56;72.55;100402.48;214194;1289;142252;-86
2023/09/23 14:27:23;;;;;;;2.50;0.80;;;;;;;19.33;72.69;100415.79;214986;1292;97999;-85
2023/09/23 14:32:24;;;;;;;3.00;0.90;;;;;;;19.23;72.96;100414.70;214212;1292;140976;-87
2023/09/23 14:37:24;;;;;;;3.70;1.10;;;;;;;19.10;72.43;100419.13;214465;1292;139658;-86
2023/09/23 14:42:25;;;;;;;2.30;0.80;;;;;;;18.94;72.35;100429.00;214146;1292;140832;-85
2023/09/23 14:47:26;;;;;;;2.20;1.10;;;;;;;18.82;73.68;100434.67;214751;1291;139098;-85
2023/09/23 14:52:26;;;;;;;1.80;0.90;;;;;;;18.70;72.84;100432.24;214269;1290;140960;-85
2023/09/23 14:57:27;;;;;;;2.50;1.00;;;;;;;18.54;72.19;100431.71;215193;1289;98052;-85
2023/09/23 15:02:27;;;;;;;2.10;0.90;;;;;;;18.39;72.72;100434.66;214277;1291;139543;-85
2023/09/23 15:07:27;;;;;;;15.70;1.40;;;;;;;18.26;73.26;100433.77;214897;1288;139216;-87
2023/09/23 15:12:28;;;;;;;1.70;0.90;;;;;;;18.24;75.09;100450.86;214347;1289;141584;-86
2023/09/23 15:17:28;;;;;;;1.80;0.80;;;;;;;18.21;75.43;100450.05;214794;1292;138880;-87
2023/09/23 15:22:29;;;;;;;2.00;0.90;;;;;;;18.11;74.92;100469.02;214249;1288;143999;-87
2023/09/23 15:27:29;;;;;;;4.40;1.20;;;;;;;18.01;75.72;100478.76;214811;1286;97853;-87
2023/09/23 15:32:30;;;;;;;1.80;1.10;;;;;;;17.98;75.98;100476.50;214429;1287;140085;-88
2023/09/23 15:37:30;;;;;;;5.30;1.30;;;;;;;17.93;76.34;100480.48;214777;1285;139275;-86
2023/09/23 15:42:32;;;;;;;2.90;1.70;;;;;;;17.87;76.81;100488.64;214287;1290;140769;-86
2023/09/23 15:47:32;;;;;;;2.60;1.00;;;;;;;17.76;77.36;100495.81;214776;1289;138686;-86
2023/09/23 15:52:33;;;;;;;3.40;1.20;;;;;;;17.67;77.99;100505.52;215308;1286;141257;-87
2023/09/23 15:57:35;;;;;;;3.70;1.80;;;;;;;17.60;78.81;100507.79;216199;1290;139511;-88
2023/09/23 16:02:35;;;;;;;10.00;4.90;;;;;;;17.55;80.04;100512.70;215335;1287;142972;-87
2023/09/23 16:07:36;;;;;;;8.50;3.60;;;;;;;17.50;80.98;100530.13;215470;1287;138898;-87
2023/09/23 16:12:36;;;;;;;5.20;2.10;;;;;;;17.42;81.74;100536.06;214874;1287;141125;-86
2023/09/23 16:17:37;;;;;;;4.80;2.20;;;;;;;17.32;81.10;100543.64;216325;1286;139082;-86
2023/09/23 16:22:37;;;;;;;3.30;1.60;;;;;;;17.27;81.40;100554.05;215748;1289;140143;-88
2023/09/23 16:27:40;;;;;;;3.70;1.70;;;;;;;17.22;81.79;100562.30;216125;1289;139161;-87
2023/09/23 16:32:40;;;;;;;5.00;1.90;;;;;;;17.13;81.96;100564.73;215275;1286;140600;-87
2023/09/23 16:37:43;;;;;;;2.80;1.60;;;;;;;16.99;82.44;100570.88;215323;1289;139299;-86
2023/09/23 16:42:46;;;;;;;4.20;1.80;;;;;;;16.87;82.50;100579.68;215136;1288;141050;-87
2023/09/23 16:47:47;;;;;;;4.80;1.60;;;;;;;16.71;83.03;100586.48;215538;1287;139455;-87
2023/09/23 16:52:47;;;;;;;4.80;1.60;;;;;;;16.53;83.75;100594.20;215177;1287;141125;-87
2023/09/23 16:57:48;;;;;;;3.10;1.50;;;;;;;16.37;83.99;100600.78;215726;1287;139452;-86
2023/09/23 17:02:48;;;;;;;4.20;1.70;;;;;;;16.22;84.55;100606.53;215234;1288;141677;-85
2023/09/23 17:07:50;;;;;;;4.50;1.80;;;;;;;16.00;85.37;100605.61;215691;1286;138559;-85
2023/09/23 17:12:51;;;;;;;3.90;1.70;;;;;;;15.81;85.95;100609.02;215050;1288;141220;-86
2023/09/23 17:17:51;;;;;;;4.80;2.80;;;;;;;15.67;86.97;100617.20;215598;1287;139616;-85
2023/09/23 17:22:52;;;;;;;5.30;2.80;;;;;;;15.50;87.43;100622.93;214909;1286;141573;-87
2023/09/23 17:27:53;;;;;;;6.10;2.50;;;;;;;15.36;88.08;100632.13;215551;1288;138845;-87
2023/09/23 17:32:53;;;;;;;6.60;2.50;;;;;;;15.21;88.82;100631.30;215074;1286;141426;-87
2023/09/23 17:37:54;;;;;;;4.80;2.10;;;;;;;15.07;89.46;100630.64;215784;1287;138577;-87
2023/09/23 17:42:54;;;;;;;5.00;1.80;;;;;;;14.95;90.28;100639.16;214994;1288;141503;-88
2023/09/23 17:47:54;;;;;;;3.80;2.00;;;;;;;14.86;90.97;100652.80;215581;1286;138814;-87
2023/09/23 17:52:55;;;;;;;5.70;2.60;;;;;;;14.76;91.55;100655.45;215086;1287;140539;-87
2023/09/23 17:57:55;;;;;;;5.30;2.50;;;;;;;14.64;92.26;100660.78;215258;1287;139238;-89
2023/09/23 18:02:56;;;;;;;6.10;2.60;;;;;;;14.53;92.69;100667.84;215435;1287;140681;-88
2023/09/23 18:07:57;;;;;;;6.40;3.40;;;;;;;14.41;93.26;100669.52;215644;1290;138765;-88
2023/09/23 18:12:57;;;;;;;7.00;3.80;;;;;;;14.30;93.58;100671.89;215247;1287;141210;-88
2023/09/23 18:17:58;;;;;;;10.10;3.50;;;;;;;14.17;94.18;100678.27;215694;1287;138947;-88
2023/09/23 18:23:00;;;;;;;8.70;4.10;;;;;;;14.05;94.77;100681.26;214977;1286;143728;-86
2023/09/23 18:28:00;;;;;;;15.50;7.40;;;;;;;13.92;94.92;100671.05;215896;1287;139755;-87
2023/09/23 18:33:01;;;;;;;46.70;25.80;;;;;;;13.79;95.17;100681.13;215500;1287;141877;-87
2023/09/23 18:38:02;;;;;;;36.50;20.00;;;;;;;13.72;95.62;100698.50;215762;1287;139427;-87
2023/09/23 18:43:03;;;;;;;22.40;12.00;;;;;;;13.60;96.17;100710.71;215196;1286;142136;-87
2023/09/23 18:48:04;;;;;;;14.60;8.40;;;;;;;13.47;96.47;100718.65;215460;1287;139658;-87
2023/09/23 18:53:04;;;;;;;14.30;7.60;;;;;;;13.37;96.73;100732.75;215264;1286;140611;-87
2023/09/23 18:58:06;;;;;;;14.10;6.70;;;;;;;13.29;97.47;100733.27;215568;1287;138850;-88
2023/09/23 19:03:09;;;;;;;12.20;5.80;;;;;;;13.15;97.54;100734.30;215257;1286;141672;-85
2023/09/23 19:08:10;;;;;;;10.60;5.30;;;;;;;13.07;98.17;100745.78;215407;1286;139167;-88
2023/09/23 19:13:11;;;;;;;11.40;5.20;;;;;;;12.98;98.44;100759.45;214994;1286;141130;-88
2023/09/23 19:18:11;;;;;;;12.50;6.80;;;;;;;12.89;98.51;100762.05;215847;1286;140310;-86
2023/09/23 19:23:13;;;;;;;10.20;6.10;;;;;;;12.78;99.01;100760.16;215177;1288;141272;-87
2023/09/23 19:28:14;;;;;;;14.90;7.20;;;;;;;12.70;99.77;100770.02;215839;1286;139017;-88
2023/09/23 19:33:15;;;;;;;11.90;6.60;;;;;;;12.63;99.87;100778.02;215849;1286;141231;-86
2023/09/23 19:38:15;;;;;;;12.90;7.90;;;;;;;12.56;99.97;100781.44;216196;1288;139204;-86
2023/09/23 19:43:17;;;;;;;9.70;5.70;;;;;;;12.46;99.94;100785.52;215427;1287;142018;-85
2023/09/23 19:48:18;;;;;;;11.60;6.00;;;;;;;12.40;99.98;100789.34;215403;1288;138823;-86
2023/09/23 19:53:18;;;;;;;13.20;5.40;;;;;;;12.34;100.00;100795.90;214893;1287;142377;-85
2023/09/23 19:58:20;;;;;;;10.70;5.30;;;;;;;12.29;100.00;100800.35;215416;1288;140031;-85
2023/09/23 20:03:21;;;;;;;11.60;5.30;;;;;;;12.22;100.00;100808.63;214959;1286;140762;-87
2023/09/23 20:08:21;;;;;;;11.20;5.70;;;;;;;12.11;100.00;100814.12;215376;1287;139228;-87
2023/09/23 20:13:22;;;;;;;9.10;5.00;;;;;;;12.03;100.00;100810.94;215020;1286;143023;-87
2023/09/23 20:18:22;;;;;;;11.00;5.40;;;;;;;11.96;100.00;100816.06;215163;1287;138885;-88
2023/09/23 20:23:23;;;;;;;10.70;5.00;;;;;;;11.91;100.00;100823.27;214774;1286;141080;-86
2023/09/23 20:28:23;;;;;;;9.70;4.90;;;;;;;11.87;100.00;100827.55;215207;1287;139858;-86
2023/09/23 20:33:23;;;;;;;9.70;5.30;;;;;;;11.80;100.00;100834.40;215063;1287;140352;-87
2023/09/23 20:38:24;;;;;;;9.60;5.50;;;;;;;11.72;100.00;100839.02;215590;1286;138921;-87
2023/09/23 20:43:24;;;;;;;8.30;5.10;;;;;;;11.66;100.00;100836.98;215190;1288;140867;-86
2023/09/23 20:48:25;;;;;;;10.00;5.70;;;;;;;11.59;100.00;100835.69;215658;1286;138843;-88
2023/09/23 20:53:26;;;;;;;11.30;5.90;;;;;;;11.54;100.00;100836.70;214976;1287;141279;-85
2023/09/23 20:58:26;;;;;;;11.30;5.60;;;;;;;11.48;100.00;100845.98;215415;1286;138975;-86
2023/09/23 21:03:27;;;;;;;10.90;6.00;;;;;;;11.41;100.00;100840.70;215177;1287;141852;-86
2023/09/23 21:08:27;;;;;;;11.70;5.80;;;;;;;11.32;100.00;100839.45;215556;1286;139558;-87
2023/09/23 21:13:27;;;;;;;13.10;7.20;;;;;;;11.27;100.00;100840.96;214939;1286;140510;-87
2023/09/23 21:18:28;;;;;;;10.50;5.90;;;;;;;11.23;100.00;100858.05;215299;1286;139314;-87
2023/09/23 21:23:28;;;;;;;13.00;8.10;;;;;;;11.18;100.00;100859.48;215028;1286;141126;-87
2023/09/23 21:28:29;;;;;;;11.40;6.80;;;;;;;11.10;100.00;100850.30;215456;1286;140010;-87
2023/09/23 21:33:31;;;;;;;9.40;6.00;;;;;;;11.03;100.00;100844.60;215232;1285;141207;-86
2023/09/23 21:38:32;;;;;;;10.30;6.50;;;;;;;10.97;100.00;100847.17;215883;1287;138886;-85
2023/09/23 21:43:32;;;;;;;11.80;6.00;;;;;;;10.92;100.00;100851.04;214916;1287;141671;-86
2023/09/23 21:48:33;;;;;;;11.60;6.40;;;;;;;10.89;100.00;100847.29;215263;1286;139534;-86
2023/09/23 21:53:34;;;;;;;12.10;7.00;;;;;;;10.87;100.00;100849.13;214931;1286;142129;-86
2023/09/23 21:58:35;;;;;;;11.50;6.60;;;;;;;10.83;100.00;100856.09;215536;1287;139895;-86
2023/09/23 22:03:36;;;;;;;9.50;6.00;;;;;;;10.81;100.00;100876.02;214990;1286;143058;-85
2023/09/23 22:08:36;;;;;;;12.00;6.60;;;;;;;10.77;100.00;100886.12;215280;1287;141073;-86
2023/09/23 22:13:37;;;;;;;13.00;6.80;;;;;;;10.74;100.00;100889.43;215031;1286;141475;-87
2023/09/23 22:18:39;;;;;;;11.40;6.90;;;;;;;10.70;100.00;100885.35;215771;1286;139745;-87
2023/09/23 22:23:40;;;;;;;12.40;6.70;;;;;;;10.68;100.00;100887.05;215630;1287;141288;-87
2023/09/23 22:28:41;;;;;;;9.40;5.80;;;;;;;10.64;100.00;100894.60;215975;1287;143167;-87
2023/09/23 22:33:42;;;;;;;11.90;6.60;;;;;;;10.61;100.00;100894.21;215697;1287;140954;-86